sensor_id;sensor_type;location;lat;lon;timestamp;P1;durP1;ratioP1;P2;durP2;ratioP2
74904;SDS011;63465;50.862;6.220;2023-09-19T00:02:17;6.73;;;2.60;;
74904;SDS011;63465;50.862;6.220;2023-09-19T00:04:42;9.47;;;2.07;;
74904;SDS011;63465;50.862;6.220;2023-09-19T00:07:08;11.20;;;2.53;;
74904;SDS011;63465;50.862;6.220;2023-09-19T00:09:34;8.93;;;2.50;;
74904;SDS011;63465;50.862;6.220;2023-09-19T00:12:03;5.90;;;2.37;;
74904;SDS011;63465;50.862;6.220;2023-09-19T00:14:30;14.00;;;2.17;;
74904;SDS011;63465;50.862;6.220;2023-09-19T00:16:58;8.63;;;2.30;;
74904;SDS011;63465;50.862;6.220;2023-09-19T00:19:25;6.77;;;2.37;;
74904;SDS011;63465;50.862;6.220;2023-09-19T00:21:51;7.87;;;2.00;;
74904;SDS011;63465;50.862;6.220;2023-09-19T00:24:18;6.20;;;1.97;;
74904;SDS011;63465;50.862;6.220;2023-09-19T00:26:44;5.60;;;1.90;;
74904;SDS011;63465;50.862;6.220;2023-09-19T00:29:12;9.20;;;2.30;;
74904;SDS011;63465;50.862;6.220;2023-09-19T00:31:42;12.40;;;1.67;;
74904;SDS011;63465;50.862;6.220;2023-09-19T00:34:08;3.60;;;1.83;;
74904;SDS011;63465;50.862;6.220;2023-09-19T00:36:35;8.57;;;2.17;;
74904;SDS011;63465;50.862;6.220;2023-09-19T00:39:01;4.60;;;2.10;;
74904;SDS011;63465;50.862;6.220;2023-09-19T00:41:27;6.90;;;1.80;;
74904;SDS011;63465;50.862;6.220;2023-09-19T00:43:55;8.63;;;2.87;;
74904;SDS011;63465;50.862;6.220;2023-09-19T00:46:20;2.97;;;2.00;;
74904;SDS011;63465;50.862;6.220;2023-09-19T00:48:46;3.17;;;1.73;;
74904;SDS011;63465;50.862;6.220;2023-09-19T00:51:11;8.50;;;1.83;;
74904;SDS011;63465;50.862;6.220;2023-09-19T00:53:38;5.40;;;1.93;;
74904;SDS011;63465;50.862;6.220;2023-09-19T00:56:04;4.10;;;1.60;;
74904;SDS011;63465;50.862;6.220;2023-09-19T00:58:34;5.03;;;1.90;;
74904;SDS011;63465;50.862;6.220;2023-09-19T01:01:02;11.50;;;2.10;;
74904;SDS011;63465;50.862;6.220;2023-09-19T01:03:31;3.77;;;1.70;;
74904;SDS011;63465;50.862;6.220;2023-09-19T01:05:59;11.83;;;2.30;;
74904;SDS011;63465;50.862;6.220;2023-09-19T01:08:25;6.40;;;1.80;;
74904;SDS011;63465;50.862;6.220;2023-09-19T01:10:55;9.40;;;2.67;;
74904;SDS011;63465;50.862;6.220;2023-09-19T01:13:34;7.10;;;2.40;;
74904;SDS011;63465;50.862;6.220;2023-09-19T01:16:27;8.13;;;1.83;;
74904;SDS011;63465;50.862;6.220;2023-09-19T01:22:26;10.90;;;2.03;;
74904;SDS011;63465;50.862;6.220;2023-09-19T01:25:07;4.50;;;1.77;;
74904;SDS011;63465;50.862;6.220;2023-09-19T01:30:58;6.67;;;2.00;;
74904;SDS011;63465;50.862;6.220;2023-09-19T01:33:28;3.63;;;1.60;;
74904;SDS011;63465;50.862;6.220;2023-09-19T01:35:58;5.60;;;1.80;;
74904;SDS011;63465;50.862;6.220;2023-09-19T01:38:24;3.23;;;2.03;;
74904;SDS011;63465;50.862;6.220;2023-09-19T01:41:06;11.10;;;2.10;;
74904;SDS011;63465;50.862;6.220;2023-09-19T01:43:38;8.77;;;2.17;;
74904;SDS011;63465;50.862;6.220;2023-09-19T01:54:21;7.00;;;2.30;;
74904;SDS011;63465;50.862;6.220;2023-09-19T01:56:59;5.23;;;1.93;;
74904;SDS011;63465;50.862;6.220;2023-09-19T01:59:35;8.43;;;2.50;;
74904;SDS011;63465;50.862;6.220;2023-09-19T02:02:06;11.00;;;2.10;;
74904;SDS011;63465;50.862;6.220;2023-09-19T02:04:32;6.37;;;2.40;;
74904;SDS011;63465;50.862;6.220;2023-09-19T02:07:00;6.73;;;2.13;;
74904;SDS011;63465;50.862;6.220;2023-09-19T02:09:26;11.93;;;2.20;;
74904;SDS011;63465;50.862;6.220;2023-09-19T02:11:51;6.30;;;2.53;;
74904;SDS011;63465;50.862;6.220;2023-09-19T02:14:17;10.57;;;2.10;;
74904;SDS011;63465;50.862;6.220;2023-09-19T02:16:44;6.30;;;1.90;;
74904;SDS011;63465;50.862;6.220;2023-09-19T02:19:10;13.23;;;2.80;;
74904;SDS011;63465;50.862;6.220;2023-09-19T02:21:35;6.50;;;1.90;;
74904;SDS011;63465;50.862;6.220;2023-09-19T02:24:00;11.00;;;2.60;;
74904;SDS011;63465;50.862;6.220;2023-09-19T02:26:26;4.40;;;1.83;;
74904;SDS011;63465;50.862;6.220;2023-09-19T02:28:52;12.77;;;2.10;;
74904;SDS011;63465;50.862;6.220;2023-09-19T02:31:18;9.13;;;2.63;;
74904;SDS011;63465;50.862;6.220;2023-09-19T02:33:43;3.90;;;2.37;;
74904;SDS011;63465;50.862;6.220;2023-09-19T02:36:08;8.93;;;2.90;;
74904;SDS011;63465;50.862;6.220;2023-09-19T02:38:34;8.97;;;2.93;;
74904;SDS011;63465;50.862;6.220;2023-09-19T02:40:59;7.63;;;2.63;;
74904;SDS011;63465;50.862;6.220;2023-09-19T02:43:25;9.47;;;2.40;;
74904;SDS011;63465;50.862;6.220;2023-09-19T02:45:50;6.77;;;2.00;;
74904;SDS011;63465;50.862;6.220;2023-09-19T02:48:18;8.53;;;1.90;;
74904;SDS011;63465;50.862;6.220;2023-09-19T02:50:44;6.83;;;2.17;;
74904;SDS011;63465;50.862;6.220;2023-09-19T02:53:09;5.23;;;1.97;;
74904;SDS011;63465;50.862;6.220;2023-09-19T02:55:37;6.70;;;2.03;;
74904;SDS011;63465;50.862;6.220;2023-09-19T02:58:05;7.13;;;1.90;;
74904;SDS011;63465;50.862;6.220;2023-09-19T03:00:32;4.30;;;2.07;;
74904;SDS011;63465;50.862;6.220;2023-09-19T03:03:00;6.93;;;2.00;;
74904;SDS011;63465;50.862;6.220;2023-09-19T03:05:27;6.73;;;2.60;;
74904;SDS011;63465;50.862;6.220;2023-09-19T03:07:55;7.47;;;2.37;;
74904;SDS011;63465;50.862;6.220;2023-09-19T03:10:21;11.03;;;2.37;;
74904;SDS011;63465;50.862;6.220;2023-09-19T03:12:47;4.93;;;2.30;;
74904;SDS011;63465;50.862;6.220;2023-09-19T03:15:13;6.77;;;2.10;;
74904;SDS011;63465;50.862;6.220;2023-09-19T03:17:42;5.30;;;2.27;;
74904;SDS011;63465;50.862;6.220;2023-09-19T03:20:08;12.57;;;2.30;;
74904;SDS011;63465;50.862;6.220;2023-09-19T03:22:36;5.57;;;1.80;;
74904;SDS011;63465;50.862;6.220;2023-09-19T03:25:01;3.70;;;1.90;;
74904;SDS011;63465;50.862;6.220;2023-09-19T03:27:28;5.70;;;2.30;;
74904;SDS011;63465;50.862;6.220;2023-09-19T03:29:53;12.90;;;2.20;;
74904;SDS011;63465;50.862;6.220;2023-09-19T03:32:20;8.83;;;2.40;;
74904;SDS011;63465;50.862;6.220;2023-09-19T03:34:45;3.87;;;1.63;;
74904;SDS011;63465;50.862;6.220;2023-09-19T03:37:13;6.70;;;2.20;;
74904;SDS011;63465;50.862;6.220;2023-09-19T03:39:39;11.77;;;2.20;;
74904;SDS011;63465;50.862;6.220;2023-09-19T03:42:04;13.57;;;2.30;;
74904;SDS011;63465;50.862;6.220;2023-09-19T03:44:30;8.27;;;2.00;;
74904;SDS011;63465;50.862;6.220;2023-09-19T03:46:55;16.70;;;2.10;;
74904;SDS011;63465;50.862;6.220;2023-09-19T03:49:21;8.00;;;2.10;;
74904;SDS011;63465;50.862;6.220;2023-09-19T03:51:47;5.10;;;2.07;;
74904;SDS011;63465;50.862;6.220;2023-09-19T03:54:12;18.00;;;2.67;;
74904;SDS011;63465;50.862;6.220;2023-09-19T03:56:38;11.33;;;2.13;;
74904;SDS011;63465;50.862;6.220;2023-09-19T03:59:03;4.27;;;2.07;;
74904;SDS011;63465;50.862;6.220;2023-09-19T04:01:28;7.43;;;2.10;;
74904;SDS011;63465;50.862;6.220;2023-09-19T04:03:56;6.83;;;2.33;;
74904;SDS011;63465;50.862;6.220;2023-09-19T04:06:23;14.30;;;1.90;;
74904;SDS011;63465;50.862;6.220;2023-09-19T04:08:48;18.70;;;2.67;;
74904;SDS011;63465;50.862;6.220;2023-09-19T04:11:14;11.43;;;2.83;;
74904;SDS011;63465;50.862;6.220;2023-09-19T04:13:39;9.50;;;1.93;;
74904;SDS011;63465;50.862;6.220;2023-09-19T04:16:05;8.17;;;2.53;;
74904;SDS011;63465;50.862;6.220;2023-09-19T04:18:31;5.07;;;2.17;;
74904;SDS011;63465;50.862;6.220;2023-09-19T04:20:58;12.70;;;2.37;;
74904;SDS011;63465;50.862;6.220;2023-09-19T04:23:24;10.27;;;2.30;;
74904;SDS011;63465;50.862;6.220;2023-09-19T04:25:50;7.13;;;2.10;;
74904;SDS011;63465;50.862;6.220;2023-09-19T04:28:16;10.57;;;2.73;;
74904;SDS011;63465;50.862;6.220;2023-09-19T04:30:41;6.93;;;2.10;;
74904;SDS011;63465;50.862;6.220;2023-09-19T04:33:06;14.77;;;2.67;;
74904;SDS011;63465;50.862;6.220;2023-09-19T04:35:32;7.27;;;2.63;;
74904;SDS011;63465;50.862;6.220;2023-09-19T04:37:57;4.40;;;2.10;;
74904;SDS011;63465;50.862;6.220;2023-09-19T04:40:23;7.50;;;2.13;;
74904;SDS011;63465;50.862;6.220;2023-09-19T04:42:56;11.10;;;2.43;;
74904;SDS011;63465;50.862;6.220;2023-09-19T04:45:24;6.20;;;2.03;;
74904;SDS011;63465;50.862;6.220;2023-09-19T04:47:51;14.87;;;2.53;;
74904;SDS011;63465;50.862;6.220;2023-09-19T04:50:17;6.23;;;2.20;;
74904;SDS011;63465;50.862;6.220;2023-09-19T04:52:42;9.60;;;2.97;;
74904;SDS011;63465;50.862;6.220;2023-09-19T04:55:12;8.83;;;2.20;;
74904;SDS011;63465;50.862;6.220;2023-09-19T04:57:45;10.67;;;2.27;;
74904;SDS011;63465;50.862;6.220;2023-09-19T05:00:13;9.20;;;1.97;;
74904;SDS011;63465;50.862;6.220;2023-09-19T05:02:39;7.27;;;2.17;;
74904;SDS011;63465;50.862;6.220;2023-09-19T05:05:08;6.07;;;2.47;;
74904;SDS011;63465;50.862;6.220;2023-09-19T05:07:40;6.80;;;2.10;;
74904;SDS011;63465;50.862;6.220;2023-09-19T05:10:06;5.23;;;1.70;;
74904;SDS011;63465;50.862;6.220;2023-09-19T05:12:33;8.47;;;2.20;;
74904;SDS011;63465;50.862;6.220;2023-09-19T05:15:02;6.20;;;1.80;;
74904;SDS011;63465;50.862;6.220;2023-09-19T05:17:32;9.03;;;2.73;;
74904;SDS011;63465;50.862;6.220;2023-09-19T05:19:58;4.80;;;2.40;;
74904;SDS011;63465;50.862;6.220;2023-09-19T05:22:28;9.10;;;2.43;;
74904;SDS011;63465;50.862;6.220;2023-09-19T05:24:54;8.23;;;2.20;;
74904;SDS011;63465;50.862;6.220;2023-09-19T05:27:19;12.27;;;2.27;;
74904;SDS011;63465;50.862;6.220;2023-09-19T05:29:45;9.60;;;2.27;;
74904;SDS011;63465;50.862;6.220;2023-09-19T05:32:11;13.10;;;3.20;;
74904;SDS011;63465;50.862;6.220;2023-09-19T05:34:37;8.03;;;2.67;;
74904;SDS011;63465;50.862;6.220;2023-09-19T05:37:03;11.33;;;2.37;;
74904;SDS011;63465;50.862;6.220;2023-09-19T05:39:32;5.77;;;1.97;;
74904;SDS011;63465;50.862;6.220;2023-09-19T05:41:57;8.17;;;1.80;;
74904;SDS011;63465;50.862;6.220;2023-09-19T05:44:22;10.37;;;2.30;;
74904;SDS011;63465;50.862;6.220;2023-09-19T05:46:48;9.87;;;2.53;;
74904;SDS011;63465;50.862;6.220;2023-09-19T05:49:13;10.97;;;2.70;;
74904;SDS011;63465;50.862;6.220;2023-09-19T05:51:39;9.23;;;2.33;;
74904;SDS011;63465;50.862;6.220;2023-09-19T05:54:05;15.47;;;2.50;;
74904;SDS011;63465;50.862;6.220;2023-09-19T05:56:30;17.53;;;2.43;;
74904;SDS011;63465;50.862;6.220;2023-09-19T05:58:56;12.33;;;3.20;;
74904;SDS011;63465;50.862;6.220;2023-09-19T06:01:21;9.07;;;2.03;;
74904;SDS011;63465;50.862;6.220;2023-09-19T06:03:47;12.67;;;3.00;;
74904;SDS011;63465;50.862;6.220;2023-09-19T06:06:13;7.43;;;2.20;;
74904;SDS011;63465;50.862;6.220;2023-09-19T06:08:38;9.00;;;2.13;;
74904;SDS011;63465;50.862;6.220;2023-09-19T06:11:03;9.70;;;2.53;;
74904;SDS011;63465;50.862;6.220;2023-09-19T06:13:34;5.80;;;2.10;;
74904;SDS011;63465;50.862;6.220;2023-09-19T06:15:59;10.00;;;2.00;;
74904;SDS011;63465;50.862;6.220;2023-09-19T06:18:29;5.10;;;2.03;;
74904;SDS011;63465;50.862;6.220;2023-09-19T06:20:58;15.83;;;2.20;;
74904;SDS011;63465;50.862;6.220;2023-09-19T06:23:24;6.00;;;2.10;;
74904;SDS011;63465;50.862;6.220;2023-09-19T06:25:51;9.60;;;2.27;;
74904;SDS011;63465;50.862;6.220;2023-09-19T06:28:18;15.50;;;2.77;;
74904;SDS011;63465;50.862;6.220;2023-09-19T06:30:48;5.87;;;2.27;;
74904;SDS011;63465;50.862;6.220;2023-09-19T06:33:14;16.10;;;2.43;;
74904;SDS011;63465;50.862;6.220;2023-09-19T06:35:40;9.40;;;2.87;;
74904;SDS011;63465;50.862;6.220;2023-09-19T06:38:07;9.50;;;2.47;;
74904;SDS011;63465;50.862;6.220;2023-09-19T06:40:33;8.90;;;2.53;;
74904;SDS011;63465;50.862;6.220;2023-09-19T06:42:59;9.80;;;3.00;;
74904;SDS011;63465;50.862;6.220;2023-09-19T06:45:27;6.70;;;2.80;;
74904;SDS011;63465;50.862;6.220;2023-09-19T06:47:53;6.90;;;2.30;;
74904;SDS011;63465;50.862;6.220;2023-09-19T06:50:22;11.60;;;2.03;;
74904;SDS011;63465;50.862;6.220;2023-09-19T06:52:52;9.43;;;2.83;;
74904;SDS011;63465;50.862;6.220;2023-09-19T06:55:20;9.00;;;2.53;;
74904;SDS011;63465;50.862;6.220;2023-09-19T06:57:48;11.20;;;2.80;;
74904;SDS011;63465;50.862;6.220;2023-09-19T07:00:14;10.03;;;2.20;;
74904;SDS011;63465;50.862;6.220;2023-09-19T07:02:44;12.57;;;2.50;;
74904;SDS011;63465;50.862;6.220;2023-09-19T07:05:09;14.07;;;2.20;;
74904;SDS011;63465;50.862;6.220;2023-09-19T07:07:35;10.50;;;2.30;;
74904;SDS011;63465;50.862;6.220;2023-09-19T07:10:01;4.50;;;2.30;;
74904;SDS011;63465;50.862;6.220;2023-09-19T07:12:27;9.53;;;2.10;;
74904;SDS011;63465;50.862;6.220;2023-09-19T07:14:52;13.40;;;2.57;;
74904;SDS011;63465;50.862;6.220;2023-09-19T07:17:18;9.00;;;1.83;;
74904;SDS011;63465;50.862;6.220;2023-09-19T07:19:44;6.23;;;1.97;;
74904;SDS011;63465;50.862;6.220;2023-09-19T07:22:09;11.23;;;2.90;;
74904;SDS011;63465;50.862;6.220;2023-09-19T07:24:35;5.07;;;2.20;;
74904;SDS011;63465;50.862;6.220;2023-09-19T07:27:01;2.77;;;2.07;;
74904;SDS011;63465;50.862;6.220;2023-09-19T07:29:27;8.10;;;2.50;;
74904;SDS011;63465;50.862;6.220;2023-09-19T07:31:52;8.60;;;2.10;;
74904;SDS011;63465;50.862;6.220;2023-09-19T07:34:18;7.60;;;1.97;;
74904;SDS011;63465;50.862;6.220;2023-09-19T07:36:43;8.47;;;1.97;;
74904;SDS011;63465;50.862;6.220;2023-09-19T07:39:08;6.87;;;2.23;;
74904;SDS011;63465;50.862;6.220;2023-09-19T07:41:34;4.90;;;2.23;;
74904;SDS011;63465;50.862;6.220;2023-09-19T07:43:59;5.13;;;2.10;;
74904;SDS011;63465;50.862;6.220;2023-09-19T07:46:24;7.40;;;1.80;;
74904;SDS011;63465;50.862;6.220;2023-09-19T07:48:50;5.00;;;2.10;;
74904;SDS011;63465;50.862;6.220;2023-09-19T07:51:16;4.93;;;2.23;;
74904;SDS011;63465;50.862;6.220;2023-09-19T07:53:42;9.90;;;2.40;;
74904;SDS011;63465;50.862;6.220;2023-09-19T07:56:08;8.77;;;2.50;;
74904;SDS011;63465;50.862;6.220;2023-09-19T07:58:34;3.70;;;1.90;;
74904;SDS011;63465;50.862;6.220;2023-09-19T08:01:07;8.97;;;2.37;;
74904;SDS011;63465;50.862;6.220;2023-09-19T08:03:38;7.87;;;2.40;;
74904;SDS011;63465;50.862;6.220;2023-09-19T08:06:05;5.13;;;2.17;;
74904;SDS011;63465;50.862;6.220;2023-09-19T08:08:32;3.70;;;2.10;;
74904;SDS011;63465;50.862;6.220;2023-09-19T08:11:02;7.67;;;2.27;;
74904;SDS011;63465;50.862;6.220;2023-09-19T08:13:35;4.70;;;1.60;;
74904;SDS011;63465;50.862;6.220;2023-09-19T08:16:01;8.10;;;2.03;;
74904;SDS011;63465;50.862;6.220;2023-09-19T08:18:26;10.73;;;2.30;;
74904;SDS011;63465;50.862;6.220;2023-09-19T08:20:55;7.23;;;2.93;;
74904;SDS011;63465;50.862;6.220;2023-09-19T08:23:20;7.40;;;2.00;;
74904;SDS011;63465;50.862;6.220;2023-09-19T08:25:46;6.80;;;2.20;;
74904;SDS011;63465;50.862;6.220;2023-09-19T08:28:12;7.40;;;2.00;;
74904;SDS011;63465;50.862;6.220;2023-09-19T08:30:39;7.77;;;1.60;;
74904;SDS011;63465;50.862;6.220;2023-09-19T08:33:06;5.07;;;1.80;;
74904;SDS011;63465;50.862;6.220;2023-09-19T08:35:32;11.10;;;2.10;;
74904;SDS011;63465;50.862;6.220;2023-09-19T08:37:58;17.27;;;2.07;;
74904;SDS011;63465;50.862;6.220;2023-09-19T08:40:25;5.60;;;1.70;;
74904;SDS011;63465;50.862;6.220;2023-09-19T08:42:55;5.67;;;2.10;;
74904;SDS011;63465;50.862;6.220;2023-09-19T08:45:21;6.00;;;1.97;;
74904;SDS011;63465;50.862;6.220;2023-09-19T08:48:05;11.10;;;1.73;;
74904;SDS011;63465;50.862;6.220;2023-09-19T08:50:35;4.23;;;1.70;;
74904;SDS011;63465;50.862;6.220;2023-09-19T08:53:12;5.87;;;2.23;;
74904;SDS011;63465;50.862;6.220;2023-09-19T08:55:45;9.93;;;2.17;;
74904;SDS011;63465;50.862;6.220;2023-09-19T08:58:13;5.40;;;1.80;;
74904;SDS011;63465;50.862;6.220;2023-09-19T09:00:44;7.60;;;1.90;;
74904;SDS011;63465;50.862;6.220;2023-09-19T09:03:14;8.87;;;1.90;;
74904;SDS011;63465;50.862;6.220;2023-09-19T09:05:41;6.40;;;2.07;;
74904;SDS011;63465;50.862;6.220;2023-09-19T09:08:11;7.33;;;1.10;;
74904;SDS011;63465;50.862;6.220;2023-09-19T09:10:37;3.70;;;1.63;;
74904;SDS011;63465;50.862;6.220;2023-09-19T09:13:03;7.03;;;1.90;;
74904;SDS011;63465;50.862;6.220;2023-09-19T09:15:31;9.03;;;1.80;;
74904;SDS011;63465;50.862;6.220;2023-09-19T09:18:01;5.30;;;2.10;;
74904;SDS011;63465;50.862;6.220;2023-09-19T09:20:28;9.90;;;1.53;;
74904;SDS011;63465;50.862;6.220;2023-09-19T09:22:54;4.83;;;1.70;;
74904;SDS011;63465;50.862;6.220;2023-09-19T09:25:21;8.30;;;2.10;;
74904;SDS011;63465;50.862;6.220;2023-09-19T09:28:01;9.20;;;1.70;;
74904;SDS011;63465;50.862;6.220;2023-09-19T09:30:36;9.37;;;2.20;;
74904;SDS011;63465;50.862;6.220;2023-09-19T09:33:09;11.90;;;1.93;;
74904;SDS011;63465;50.862;6.220;2023-09-19T09:35:52;13.20;;;1.87;;
74904;SDS011;63465;50.862;6.220;2023-09-19T09:38:19;8.40;;;2.43;;
74904;SDS011;63465;50.862;6.220;2023-09-19T09:40:46;9.33;;;1.77;;
74904;SDS011;63465;50.862;6.220;2023-09-19T09:46:11;7.40;;;1.93;;
74904;SDS011;63465;50.862;6.220;2023-09-19T09:49:02;13.83;;;1.90;;
74904;SDS011;63465;50.862;6.220;2023-09-19T09:52:05;4.63;;;1.87;;
74904;SDS011;63465;50.862;6.220;2023-09-19T09:54:33;10.53;;;2.33;;
74904;SDS011;63465;50.862;6.220;2023-09-19T09:57:06;8.53;;;2.13;;
74904;SDS011;63465;50.862;6.220;2023-09-19T09:59:53;8.37;;;2.00;;
74904;SDS011;63465;50.862;6.220;2023-09-19T10:02:26;7.10;;;1.60;;
74904;SDS011;63465;50.862;6.220;2023-09-19T10:05:11;13.03;;;2.30;;
74904;SDS011;63465;50.862;6.220;2023-09-19T10:08:10;6.70;;;2.10;;
74904;SDS011;63465;50.862;6.220;2023-09-19T10:10:40;6.33;;;2.17;;
74904;SDS011;63465;50.862;6.220;2023-09-19T10:13:06;6.83;;;2.40;;
74904;SDS011;63465;50.862;6.220;2023-09-19T10:15:33;7.30;;;1.83;;
74904;SDS011;63465;50.862;6.220;2023-09-19T10:18:01;8.47;;;1.80;;
74904;SDS011;63465;50.862;6.220;2023-09-19T10:20:30;14.63;;;2.30;;
74904;SDS011;63465;50.862;6.220;2023-09-19T10:23:00;5.57;;;2.00;;
74904;SDS011;63465;50.862;6.220;2023-09-19T10:25:29;7.50;;;1.93;;
74904;SDS011;63465;50.862;6.220;2023-09-19T10:27:55;3.80;;;1.70;;
74904;SDS011;63465;50.862;6.220;2023-09-19T10:30:23;4.27;;;1.63;;
74904;SDS011;63465;50.862;6.220;2023-09-19T10:32:56;5.13;;;2.00;;
74904;SDS011;63465;50.862;6.220;2023-09-19T10:35:25;13.10;;;2.50;;
74904;SDS011;63465;50.862;6.220;2023-09-19T10:37:51;6.57;;;2.20;;
74904;SDS011;63465;50.862;6.220;2023-09-19T10:40:19;1.77;;;1.30;;
74904;SDS011;63465;50.862;6.220;2023-09-19T10:42:46;3.90;;;1.10;;
74904;SDS011;63465;50.862;6.220;2023-09-19T10:45:15;4.97;;;1.50;;
74904;SDS011;63465;50.862;6.220;2023-09-19T10:47:43;5.87;;;1.80;;
74904;SDS011;63465;50.862;6.220;2023-09-19T10:50:09;12.10;;;2.33;;
74904;SDS011;63465;50.862;6.220;2023-09-19T10:52:46;8.10;;;1.70;;
74904;SDS011;63465;50.862;6.220;2023-09-19T10:55:15;10.40;;;1.87;;
74904;SDS011;63465;50.862;6.220;2023-09-19T10:57:44;3.63;;;1.80;;
74904;SDS011;63465;50.862;6.220;2023-09-19T11:00:11;3.37;;;1.27;;
74904;SDS011;63465;50.862;6.220;2023-09-19T11:05:36;7.70;;;1.60;;
74904;SDS011;63465;50.862;6.220;2023-09-19T11:08:05;8.17;;;1.70;;
74904;SDS011;63465;50.862;6.220;2023-09-19T11:13:26;3.47;;;1.60;;
74904;SDS011;63465;50.862;6.220;2023-09-19T11:26:40;2.50;;;1.30;;
74904;SDS011;63465;50.862;6.220;2023-09-19T11:29:25;4.47;;;2.17;;
74904;SDS011;63465;50.862;6.220;2023-09-19T11:31:51;5.20;;;2.10;;
74904;SDS011;63465;50.862;6.220;2023-09-19T11:37:00;5.87;;;1.73;;
74904;SDS011;63465;50.862;6.220;2023-09-19T11:39:29;10.07;;;1.90;;
74904;SDS011;63465;50.862;6.220;2023-09-19T11:41:54;5.33;;;1.50;;
74904;SDS011;63465;50.862;6.220;2023-09-19T11:44:31;5.67;;;2.00;;
74904;SDS011;63465;50.862;6.220;2023-09-19T11:47:03;7.70;;;1.87;;
74904;SDS011;63465;50.862;6.220;2023-09-19T11:49:31;8.43;;;1.80;;
74904;SDS011;63465;50.862;6.220;2023-09-19T11:51:58;3.17;;;1.77;;
74904;SDS011;63465;50.862;6.220;2023-09-19T11:54:31;1.87;;;0.90;;
74904;SDS011;63465;50.862;6.220;2023-09-19T11:56:57;5.67;;;1.33;;
74904;SDS011;63465;50.862;6.220;2023-09-19T11:59:24;6.80;;;1.77;;
74904;SDS011;63465;50.862;6.220;2023-09-19T12:01:54;7.60;;;1.30;;
74904;SDS011;63465;50.862;6.220;2023-09-19T12:04:33;10.53;;;1.63;;
74904;SDS011;63465;50.862;6.220;2023-09-19T12:07:03;4.40;;;1.50;;
74904;SDS011;63465;50.862;6.220;2023-09-19T12:09:36;18.40;;;2.40;;
74904;SDS011;63465;50.862;6.220;2023-09-19T12:12:03;4.37;;;1.50;;
74904;SDS011;63465;50.862;6.220;2023-09-19T12:14:29;3.93;;;1.83;;
74904;SDS011;63465;50.862;6.220;2023-09-19T12:16:56;7.17;;;1.70;;
74904;SDS011;63465;50.862;6.220;2023-09-19T12:19:23;2.37;;;1.43;;
74904;SDS011;63465;50.862;6.220;2023-09-19T12:21:54;10.60;;;1.50;;
74904;SDS011;63465;50.862;6.220;2023-09-19T12:24:21;3.80;;;1.50;;
74904;SDS011;63465;50.862;6.220;2023-09-19T12:26:46;2.23;;;1.50;;
74904;SDS011;63465;50.862;6.220;2023-09-19T12:29:13;5.43;;;1.40;;
74904;SDS011;63465;50.862;6.220;2023-09-19T12:34:20;3.30;;;1.23;;
74904;SDS011;63465;50.862;6.220;2023-09-19T12:36:47;2.13;;;1.03;;
74904;SDS011;63465;50.862;6.220;2023-09-19T12:39:23;1.47;;;1.27;;
74904;SDS011;63465;50.862;6.220;2023-09-19T12:41:50;4.20;;;1.40;;
74904;SDS011;63465;50.862;6.220;2023-09-19T12:44:16;6.73;;;1.60;;
74904;SDS011;63465;50.862;6.220;2023-09-19T12:46:43;5.90;;;2.07;;
74904;SDS011;63465;50.862;6.220;2023-09-19T12:49:19;8.23;;;1.73;;
74904;SDS011;63465;50.862;6.220;2023-09-19T12:51:47;4.23;;;1.33;;
74904;SDS011;63465;50.862;6.220;2023-09-19T12:54:13;1.93;;;1.20;;
74904;SDS011;63465;50.862;6.220;2023-09-19T12:56:43;1.53;;;1.30;;
74904;SDS011;63465;50.862;6.220;2023-09-19T12:59:11;2.67;;;1.20;;
74904;SDS011;63465;50.862;6.220;2023-09-19T13:01:39;6.13;;;1.90;;
74904;SDS011;63465;50.862;6.220;2023-09-19T13:04:16;3.30;;;1.67;;
74904;SDS011;63465;50.862;6.220;2023-09-19T13:06:44;7.40;;;1.23;;
74904;SDS011;63465;50.862;6.220;2023-09-19T13:09:14;1.53;;;0.93;;
74904;SDS011;63465;50.862;6.220;2023-09-19T13:11:40;1.93;;;1.10;;
74904;SDS011;63465;50.862;6.220;2023-09-19T13:14:16;2.40;;;1.00;;
74904;SDS011;63465;50.862;6.220;2023-09-19T13:19:50;1.70;;;1.17;;
74904;SDS011;63465;50.862;6.220;2023-09-19T13:25:19;5.13;;;1.37;;
74904;SDS011;63465;50.862;6.220;2023-09-19T13:27:55;3.43;;;1.40;;
74904;SDS011;63465;50.862;6.220;2023-09-19T13:30:25;4.43;;;1.40;;
74904;SDS011;63465;50.862;6.220;2023-09-19T13:35:34;3.10;;;1.10;;
74904;SDS011;63465;50.862;6.220;2023-09-19T13:38:01;4.53;;;1.17;;
74904;SDS011;63465;50.862;6.220;2023-09-19T13:40:27;2.10;;;0.67;;
74904;SDS011;63465;50.862;6.220;2023-09-19T13:42:55;2.40;;;1.20;;
74904;SDS011;63465;50.862;6.220;2023-09-19T13:45:21;2.20;;;1.10;;
74904;SDS011;63465;50.862;6.220;2023-09-19T13:47:49;2.50;;;1.40;;
74904;SDS011;63465;50.862;6.220;2023-09-19T13:50:14;2.33;;;1.00;;
74904;SDS011;63465;50.862;6.220;2023-09-19T13:52:40;3.13;;;1.10;;
74904;SDS011;63465;50.862;6.220;2023-09-19T13:55:05;7.13;;;1.03;;
74904;SDS011;63465;50.862;6.220;2023-09-19T13:57:32;5.17;;;1.20;;
74904;SDS011;63465;50.862;6.220;2023-09-19T13:59:58;1.13;;;1.13;;
74904;SDS011;63465;50.862;6.220;2023-09-19T14:02:23;2.80;;;1.30;;
74904;SDS011;63465;50.862;6.220;2023-09-19T14:04:49;4.97;;;1.27;;
74904;SDS011;63465;50.862;6.220;2023-09-19T14:07:15;1.00;;;0.90;;
74904;SDS011;63465;50.862;6.220;2023-09-19T14:09:43;1.97;;;0.90;;
74904;SDS011;63465;50.862;6.220;2023-09-19T14:12:09;2.03;;;0.80;;
74904;SDS011;63465;50.862;6.220;2023-09-19T14:14:34;2.80;;;1.03;;
74904;SDS011;63465;50.862;6.220;2023-09-19T14:16:59;4.50;;;1.10;;
74904;SDS011;63465;50.862;6.220;2023-09-19T14:19:26;1.77;;;1.10;;
74904;SDS011;63465;50.862;6.220;2023-09-19T14:21:52;2.33;;;1.00;;
74904;SDS011;63465;50.862;6.220;2023-09-19T14:24:20;2.40;;;0.90;;
74904;SDS011;63465;50.862;6.220;2023-09-19T14:26:45;0.93;;;0.87;;
74904;SDS011;63465;50.862;6.220;2023-09-19T14:29:11;1.47;;;0.90;;
74904;SDS011;63465;50.862;6.220;2023-09-19T14:31:37;2.20;;;1.00;;
74904;SDS011;63465;50.862;6.220;2023-09-19T14:34:03;1.20;;;1.10;;
74904;SDS011;63465;50.862;6.220;2023-09-19T14:36:30;4.80;;;1.40;;
74904;SDS011;63465;50.862;6.220;2023-09-19T14:38:55;7.17;;;1.10;;
74904;SDS011;63465;50.862;6.220;2023-09-19T14:41:22;3.73;;;0.87;;
74904;SDS011;63465;50.862;6.220;2023-09-19T14:43:48;1.53;;;1.00;;
74904;SDS011;63465;50.862;6.220;2023-09-19T14:46:14;5.53;;;1.00;;
74904;SDS011;63465;50.862;6.220;2023-09-19T14:48:39;2.80;;;0.93;;
74904;SDS011;63465;50.862;6.220;2023-09-19T14:51:05;2.63;;;0.90;;
74904;SDS011;63465;50.862;6.220;2023-09-19T14:53:33;5.80;;;1.23;;
74904;SDS011;63465;50.862;6.220;2023-09-19T14:56:02;1.53;;;0.90;;
74904;SDS011;63465;50.862;6.220;2023-09-19T14:58:28;1.13;;;0.90;;
74904;SDS011;63465;50.862;6.220;2023-09-19T15:01:01;2.30;;;0.90;;
74904;SDS011;63465;50.862;6.220;2023-09-19T15:03:35;3.43;;;0.90;;
74904;SDS011;63465;50.862;6.220;2023-09-19T15:06:02;2.60;;;1.27;;
74904;SDS011;63465;50.862;6.220;2023-09-19T15:08:29;1.30;;;1.20;;
74904;SDS011;63465;50.862;6.220;2023-09-19T15:10:59;2.40;;;0.87;;
74904;SDS011;63465;50.862;6.220;2023-09-19T15:13:28;3.90;;;1.00;;
74904;SDS011;63465;50.862;6.220;2023-09-19T15:15:58;1.57;;;1.10;;
74904;SDS011;63465;50.862;6.220;2023-09-19T15:18:25;2.80;;;1.23;;
74904;SDS011;63465;50.862;6.220;2023-09-19T15:20:50;3.37;;;1.20;;
74904;SDS011;63465;50.862;6.220;2023-09-19T15:23:15;2.60;;;1.30;;
74904;SDS011;63465;50.862;6.220;2023-09-19T15:25:47;0.97;;;0.80;;
74904;SDS011;63465;50.862;6.220;2023-09-19T15:28:14;9.87;;;1.70;;
74904;SDS011;63465;50.862;6.220;2023-09-19T15:30:39;5.13;;;0.97;;
74904;SDS011;63465;50.862;6.220;2023-09-19T15:33:04;6.00;;;1.20;;
74904;SDS011;63465;50.862;6.220;2023-09-19T15:35:30;1.20;;;1.10;;
74904;SDS011;63465;50.862;6.220;2023-09-19T15:37:55;1.63;;;1.20;;
74904;SDS011;63465;50.862;6.220;2023-09-19T15:40:21;4.93;;;1.50;;